KMCE/MCE METAR and TAF weather

Enter ICAO airport designator
Station Type Date Time Source
KMCE METAR 2022/12/05 13:53 UTC NOAA

KMCE 051353Z AUTO 00000KT 10SM CLR 09/07 A3005 RMK AO2 SLP176 T00940067


Station Type Date Time Source
KMCE Decoded METAR 2022/12/05 13:53 UTC NOAA

MERCED MUNICIPAL AIRPORT, CA, United States (KMCE) 37-17N 120-30W 47M
Dec 05, 2022 - 08:53 AM EST / 2022.12.05 1353 UTC
Wind: Calm:0
Visibility: 10 mile(s):0
Sky conditions: clear
Temperature: 48.9 F (9.4 C)
Dew Point: 44.1 F (6.7 C)
Relative Humidity: 83%
Pressure (altimeter): 30.05 in. Hg (1017 hPa)
ob: KMCE 051353Z AUTO 00000KT 10SM CLR 09/07 A3005 RMK AO2 SLP176 T00940067
cycle: 14

Station Type Date Time Source
KMCE TAF 2022/12/05 12:24 UTC NOAA

TAF KMCE 051123Z 0512/0612 VRB03KT P6SM BKN070
TEMPO 0513/0517 3SM BR
FM051800 VRB04KT P6SM VCSH BKN050
FM060800 00000KT 3SM BR BKN050

Example: see airport list